createdAt,value
2023-05-01T00:00:31.858Z,98906.75
2023-05-01T00:03:14.561Z,98904.38
2023-05-01T00:05:42.391Z,98905.50
2023-05-01T00:08:10.873Z,98904.95
2023-05-01T00:10:38.993Z,98904.70
2023-05-01T00:13:06.715Z,98905.35
2023-05-01T00:15:34.384Z,98904.43
2023-05-01T00:18:02.085Z,98909.64
2023-05-01T00:20:29.883Z,98907.77
2023-05-01T00:22:58.084Z,98908.38
2023-05-01T00:25:25.794Z,98909.90
2023-05-01T00:27:53.515Z,98902.38
2023-05-01T00:30:21.153Z,98898.66
2023-05-01T00:32:48.793Z,98902.05
2023-05-01T00:35:16.639Z,98900.67
2023-05-01T00:37:44.224Z,98901.48
2023-05-01T00:40:15.462Z,98903.27
2023-05-01T00:42:43.127Z,98904.03
2023-05-01T00:45:11.150Z,98897.08
2023-05-01T00:47:38.893Z,98893.98
2023-05-01T00:50:07.327Z,98894.84
2023-05-01T00:52:34.948Z,98893.00
2023-05-01T00:55:02.641Z,98890.45
2023-05-01T00:57:30.569Z,98891.98
2023-05-01T00:59:58.456Z,98898.38
2023-05-01T01:02:27.330Z,98897.70
2023-05-01T01:04:55.238Z,98899.17
2023-05-01T01:07:40.287Z,98892.70
2023-05-01T01:10:34.280Z,98890.17
2023-05-01T01:13:20.844Z,98886.48
2023-05-01T01:15:58.329Z,98883.89
2023-05-01T01:18:40.477Z,98887.59
2023-05-01T01:21:38.929Z,98887.08
2023-05-01T01:24:42.260Z,98891.84
2023-05-01T01:27:36.084Z,98886.80
2023-05-01T01:30:22.643Z,98883.41
2023-05-01T01:33:09.342Z,98886.27
2023-05-01T01:35:37.019Z,98887.34
2023-05-01T01:38:11.566Z,98883.42
2023-05-01T01:40:43.071Z,98877.59
2023-05-01T01:43:13.563Z,98877.04
2023-05-01T01:45:42.271Z,98873.23
2023-05-01T01:48:12.277Z,98866.68
2023-05-01T01:50:39.886Z,98870.98
2023-05-01T01:53:07.504Z,98867.65
2023-05-01T01:55:35.224Z,98868.84
2023-05-01T01:58:03.263Z,98867.65
2023-05-01T02:00:30.865Z,98866.38
2023-05-01T02:02:59.386Z,98861.62
2023-05-01T02:05:27.098Z,98857.88
2023-05-01T02:07:54.667Z,98855.92
2023-05-01T02:10:22.875Z,98858.38
2023-05-01T02:12:51.657Z,98854.18
2023-05-01T02:15:19.419Z,98854.71
2023-05-01T02:17:47.072Z,98854.52
2023-05-01T02:20:15.382Z,98853.12
2023-05-01T02:22:43.665Z,98854.29
2023-05-01T02:25:12.637Z,98850.70
2023-05-01T02:28:02.870Z,98847.10
2023-05-01T02:30:30.555Z,98847.23
2023-05-01T02:32:58.176Z,98845.77
2023-05-01T02:35:26.331Z,98842.98
2023-05-01T02:37:53.967Z,98842.41
2023-05-01T02:40:22.007Z,98841.50
2023-05-01T02:42:49.641Z,98842.64
2023-05-01T02:45:21.532Z,98840.13
2023-05-01T02:47:52.071Z,98834.35
2023-05-01T02:50:19.925Z,98832.84
2023-05-01T02:52:47.574Z,98831.18
2023-05-01T02:55:15.553Z,98832.22
2023-05-01T02:57:43.310Z,98832.60
2023-05-01T03:00:13.995Z,98836.41
2023-05-01T03:02:42.399Z,98834.35
2023-05-01T03:05:10.105Z,98833.68
2023-05-01T03:07:37.718Z,98836.83
2023-05-01T03:10:07.888Z,98832.00
2023-05-01T03:12:35.498Z,98831.61
2023-05-01T03:15:03.582Z,98833.67
2023-05-01T03:17:31.473Z,98831.21
2023-05-01T03:19:59.198Z,98829.95
2023-05-01T03:22:29.590Z,98827.09
2023-05-01T03:24:57.248Z,98830.29
2023-05-01T03:27:24.876Z,98831.67
2023-05-01T03:29:52.912Z,98830.46
2023-05-01T03:32:20.673Z,98829.84
2023-05-01T03:34:48.482Z,98832.70
2023-05-01T03:37:16.299Z,98834.90
2023-05-01T03:39:43.903Z,98839.59
2023-05-01T03:42:11.478Z,98837.91
2023-05-01T03:44:39.119Z,98838.28
2023-05-01T03:47:06.712Z,98835.51
2023-05-01T03:49:34.307Z,98831.89
2023-05-01T03:52:01.934Z,98836.17
2023-05-01T03:54:29.542Z,98830.48
2023-05-01T03:56:57.157Z,98828.94
2023-05-01T03:59:25.085Z,98830.36
2023-05-01T04:01:53.026Z,98829.48
2023-05-01T04:04:20.848Z,98823.23
2023-05-01T04:06:51.959Z,98826.48
2023-05-01T04:09:19.743Z,98821.69
2023-05-01T04:11:47.476Z,98817.75
2023-05-01T04:14:15.069Z,98812.80
2023-05-01T04:16:43.377Z,98816.86
2023-05-01T04:19:10.964Z,98819.20
2023-05-01T04:21:38.955Z,98812.69
2023-05-01T04:24:06.640Z,98810.70
2023-05-01T04:26:34.279Z,98808.52
2023-05-01T04:29:01.913Z,98807.51
2023-05-01T04:31:29.624Z,98809.86
2023-05-01T04:33:58.589Z,98811.33
2023-05-01T04:36:26.211Z,98811.21
2023-05-01T04:38:53.782Z,98814.63
2023-05-01T04:41:21.769Z,98812.46
2023-05-01T04:43:49.484Z,98813.17
2023-05-01T04:46:17.183Z,98810.11
2023-05-01T04:48:44.892Z,98812.70
2023-05-01T04:51:12.754Z,98811.95
2023-05-01T04:53:40.379Z,98813.45
2023-05-01T04:56:08.026Z,98814.58
2023-05-01T04:58:35.647Z,98810.75
2023-05-01T05:01:03.361Z,98803.05
2023-05-01T05:03:31.058Z,98801.69
2023-05-01T05:05:58.996Z,98799.83
2023-05-01T05:08:26.689Z,98802.89
2023-05-01T05:11:00.800Z,98799.70
2023-05-01T05:13:28.399Z,98805.89
2023-05-01T05:15:56.387Z,98805.52
2023-05-01T05:18:24.326Z,98801.42
2023-05-01T05:20:52.128Z,98803.91
2023-05-01T05:23:19.729Z,98800.20
2023-05-01T05:25:47.456Z,98793.48
2023-05-01T05:28:15.119Z,98791.23
2023-05-01T05:30:43.399Z,98794.23
2023-05-01T05:33:11.470Z,98790.02
2023-05-01T05:35:39.193Z,98790.17
2023-05-01T05:38:06.845Z,98789.98
2023-05-01T05:40:34.467Z,98785.35
2023-05-01T05:43:02.119Z,98784.95
2023-05-01T05:45:29.686Z,98782.38
2023-05-01T05:47:57.464Z,98786.10
2023-05-01T05:50:25.253Z,98782.59
2023-05-01T05:52:52.941Z,98783.60
2023-05-01T05:55:20.695Z,98782.47
2023-05-01T05:57:48.411Z,98782.55
2023-05-01T06:00:17.324Z,98782.02
2023-05-01T06:02:45.273Z,98780.40
2023-05-01T06:05:13.680Z,98780.37
2023-05-01T06:07:41.424Z,98776.28
2023-05-01T06:10:09.757Z,98778.61
2023-05-01T06:12:40.387Z,98775.70
2023-05-01T06:15:16.838Z,98775.42
2023-05-01T06:17:44.537Z,98773.35
2023-05-01T06:20:14.427Z,98776.41
2023-05-01T06:22:42.130Z,98773.74
2023-05-01T06:25:10.115Z,98776.55
2023-05-01T06:27:37.724Z,98774.55
2023-05-01T06:30:05.948Z,98777.07
2023-05-01T06:32:33.617Z,98781.34
2023-05-01T06:35:01.292Z,98781.89
2023-05-01T06:37:29.715Z,98780.53
2023-05-01T06:39:57.570Z,98778.81
2023-05-01T06:42:25.699Z,98775.70
2023-05-01T06:44:53.303Z,98782.20
2023-05-01T06:47:21.501Z,98783.98
2023-05-01T06:49:49.334Z,98781.92
2023-05-01T06:52:16.917Z,98783.18
2023-05-01T06:54:44.508Z,98778.31
2023-05-01T06:57:12.122Z,98778.15
2023-05-01T06:59:40.234Z,98769.45
2023-05-01T07:02:08.071Z,98767.05
2023-05-01T07:04:35.871Z,98768.45
2023-05-01T07:07:03.528Z,98768.46
2023-05-01T07:09:31.408Z,98767.59
2023-05-01T07:11:59.077Z,98770.91
2023-05-01T07:14:26.681Z,98767.77
2023-05-01T07:16:54.381Z,98765.45
2023-05-01T07:19:22.015Z,98764.02
2023-05-01T07:21:49.648Z,98761.56
2023-05-01T07:24:17.314Z,98759.45
2023-05-01T07:26:44.906Z,98758.42
2023-05-01T07:29:13.342Z,98760.31
2023-05-01T07:31:41.876Z,98756.77
2023-05-01T07:34:09.640Z,98754.30
2023-05-01T07:36:37.669Z,98751.83
2023-05-01T07:39:06.690Z,98754.80
2023-05-01T07:41:34.413Z,98755.66
2023-05-01T07:44:02.307Z,98752.32
2023-05-01T07:46:30.380Z,98754.79
2023-05-01T07:49:00.976Z,98755.64
2023-05-01T07:51:28.555Z,98757.17
2023-05-01T07:53:56.151Z,98755.53
2023-05-01T07:56:23.818Z,98752.83
2023-05-01T07:58:51.448Z,98753.64
2023-05-01T08:01:19.119Z,98748.53
2023-05-01T08:03:48.688Z,98756.03
2023-05-01T08:06:18.093Z,98748.82
2023-05-01T08:08:45.959Z,98744.73
2023-05-01T08:11:14.031Z,98741.73
2023-05-01T08:13:41.640Z,98736.09
2023-05-01T08:16:09.364Z,98732.21
2023-05-01T08:18:38.492Z,98730.94
2023-05-01T08:21:08.780Z,98734.95
2023-05-01T08:23:36.658Z,98734.51
2023-05-01T08:26:04.433Z,98735.84
2023-05-01T08:28:34.503Z,98743.84
2023-05-01T08:31:03.862Z,98736.23
2023-05-01T08:33:31.550Z,98732.46
2023-05-01T08:35:59.405Z,98731.30
2023-05-01T08:38:27.038Z,98728.57
2023-05-01T08:40:56.723Z,98727.42
2023-05-01T08:43:25.332Z,98725.56
2023-05-01T08:45:52.890Z,98723.19
2023-05-01T08:48:20.655Z,98724.33
2023-05-01T08:50:48.351Z,98727.91
2023-05-01T08:53:16.444Z,98723.94
2023-05-01T08:55:46.114Z,98718.56
2023-05-01T08:58:13.920Z,98721.79
2023-05-01T09:00:42.084Z,98718.86
2023-05-01T09:03:11.791Z,98714.88
2023-05-01T09:05:39.652Z,98717.92
2023-05-01T09:08:07.298Z,98709.88
2023-05-01T09:10:36.118Z,98713.96
2023-05-01T09:13:07.005Z,98703.64
2023-05-01T09:15:34.802Z,98700.32
2023-05-01T09:18:03.782Z,98698.58
2023-05-01T09:20:32.042Z,98698.59
2023-05-01T09:23:00.021Z,98695.78
2023-05-01T09:25:28.230Z,98689.10
2023-05-01T09:27:57.266Z,98680.66
2023-05-01T09:30:31.667Z,98677.32
2023-05-01T09:33:12.068Z,98673.80
2023-05-01T09:35:56.112Z,98673.41
2023-05-01T09:38:24.967Z,98676.03
2023-05-01T09:41:03.421Z,98670.73
2023-05-01T09:43:31.915Z,98664.73
2023-05-01T09:46:05.480Z,98660.29
2023-05-01T09:48:35.809Z,98661.64
2023-05-01T09:51:22.690Z,98663.87
2023-05-01T09:53:50.490Z,98658.52
2023-05-01T09:56:18.907Z,98659.86
2023-05-01T09:58:47.241Z,98658.39
2023-05-01T10:01:15.356Z,98653.63
2023-05-01T10:03:44.513Z,98649.96
2023-05-01T10:06:12.319Z,98646.46
2023-05-01T10:08:47.676Z,98641.52
2023-05-01T10:11:15.410Z,98635.97
2023-05-01T10:13:42.998Z,98641.73
2023-05-01T10:16:43.322Z,98634.45
2023-05-01T10:19:11.247Z,98629.65
2023-05-01T10:21:38.886Z,98631.41
2023-05-01T10:24:07.950Z,98625.69
2023-05-01T10:26:36.474Z,98621.58
2023-05-01T10:29:04.307Z,98618.45
2023-05-01T10:31:33.455Z,98623.63
2023-05-01T10:34:03.772Z,98621.66
2023-05-01T10:36:34.501Z,98615.49
2023-05-01T10:39:02.135Z,98615.27
2023-05-01T10:41:58.204Z,98611.45
2023-05-01T10:44:27.269Z,98603.39
2023-05-01T10:46:55.216Z,98602.22
2023-05-01T10:49:23.221Z,98602.10
2023-05-01T10:51:57.887Z,98603.63
2023-05-01T10:54:26.992Z,98598.77
2023-05-01T10:56:56.165Z,98593.77
2023-05-01T10:59:23.873Z,98590.15
2023-05-01T11:01:52.307Z,98581.24
2023-05-01T11:04:22.808Z,98579.96
2023-05-01T11:07:07.558Z,98583.14
2023-05-01T11:09:51.338Z,98587.20
2023-05-01T11:12:48.392Z,98584.89
2023-05-01T11:15:32.562Z,98579.77
2023-05-01T11:18:01.533Z,98573.52
2023-05-01T11:20:29.264Z,98570.55
2023-05-01T11:22:57.334Z,98563.61
2023-05-01T11:25:27.713Z,98561.13
2023-05-01T11:27:57.087Z,98554.08
2023-05-01T11:30:24.708Z,98552.45
2023-05-01T11:32:52.567Z,98548.83
2023-05-01T11:35:24.180Z,98549.91
2023-05-01T11:37:51.810Z,98553.02
2023-05-01T11:40:20.281Z,98540.34
2023-05-01T11:42:48.890Z,98535.16
2023-05-01T11:45:19.800Z,98530.84
2023-05-01T11:47:47.528Z,98531.42
2023-05-01T11:50:15.555Z,98526.51
2023-05-01T11:52:49.397Z,98519.16
2023-05-01T11:55:16.980Z,98512.58
2023-05-01T11:57:54.374Z,98515.33
2023-05-01T12:00:38.248Z,98517.96
2023-05-01T12:03:06.718Z,98513.73
2023-05-01T12:05:38.652Z,98506.41
2023-05-01T12:08:09.977Z,98503.40
2023-05-01T12:10:38.433Z,98495.42
2023-05-01T12:13:06.908Z,98491.02
2023-05-01T12:15:36.217Z,98488.60
2023-05-01T12:18:05.094Z,98490.57
2023-05-01T12:20:40.389Z,98488.11
2023-05-01T12:23:10.609Z,98482.45
2023-05-01T12:25:39.554Z,98481.98
2023-05-01T12:28:20.439Z,98472.80
2023-05-01T12:30:49.125Z,98467.58
2023-05-01T12:33:18.934Z,98466.06
2023-05-01T12:35:47.938Z,98466.10
2023-05-01T12:38:17.074Z,98463.07
2023-05-01T12:40:55.187Z,98462.70
2023-05-01T12:43:29.498Z,98455.18
2023-05-01T12:45:57.147Z,98452.41
2023-05-01T12:48:24.990Z,98448.85
2023-05-01T12:50:55.249Z,98443.98
2023-05-01T12:53:23.938Z,98432.23
2023-05-01T12:55:53.230Z,98432.94
2023-05-01T12:58:21.167Z,98424.92
2023-05-01T13:00:49.900Z,98430.04
2023-05-01T13:03:23.832Z,98425.19
2023-05-01T13:06:02.330Z,98424.96
2023-05-01T13:08:31.675Z,98424.37
2023-05-01T13:11:01.185Z,98418.92
2023-05-01T13:13:34.763Z,98413.14
2023-05-01T13:16:10.510Z,98408.35
2023-05-01T13:18:48.664Z,98411.35
2023-05-01T13:21:18.542Z,98402.32
2023-05-01T13:23:54.277Z,98399.41
2023-05-01T13:26:33.012Z,98399.04
2023-05-01T13:29:01.913Z,98397.70
2023-05-01T13:31:30.129Z,98391.27
2023-05-01T13:33:58.868Z,98385.79
2023-05-01T13:36:27.555Z,98385.38
2023-05-01T13:38:56.463Z,98379.77
2023-05-01T13:41:26.221Z,98371.48
2023-05-01T13:43:55.147Z,98371.42
2023-05-01T13:46:23.493Z,98370.30
2023-05-01T13:48:51.382Z,98368.06
2023-05-01T13:51:24.806Z,98364.96
2023-05-01T13:53:55.201Z,98363.25
2023-05-01T13:56:22.948Z,98362.02
2023-05-01T13:58:50.919Z,98358.63
2023-05-01T14:01:23.603Z,98352.59
2023-05-01T14:03:51.460Z,98351.30
2023-05-01T14:06:20.194Z,98355.27
2023-05-01T14:08:48.587Z,98350.62
2023-05-01T14:11:16.869Z,98342.20
2023-05-01T14:13:45.616Z,98342.79
2023-05-01T14:16:33.544Z,98337.04
2023-05-01T14:19:01.284Z,98337.07
2023-05-01T14:21:29.125Z,98327.33
2023-05-01T14:23:57.265Z,98324.18
2023-05-01T14:26:25.109Z,98326.73
2023-05-01T14:28:53.021Z,98324.61
2023-05-01T14:31:27.530Z,98317.02
2023-05-01T14:34:00.369Z,98313.58
2023-05-01T14:36:31.099Z,98309.15
2023-05-01T14:38:59.793Z,98307.80
2023-05-01T14:41:27.588Z,98306.55
2023-05-01T14:43:55.532Z,98301.92
2023-05-01T14:46:31.139Z,98296.95
2023-05-01T14:48:59.981Z,98295.70
2023-05-01T14:51:28.611Z,98298.40
2023-05-01T14:53:56.364Z,98293.48
2023-05-01T14:56:24.113Z,98291.41
2023-05-01T14:58:51.778Z,98292.06
2023-05-01T15:01:19.873Z,98287.95
2023-05-01T15:03:47.845Z,98283.86
2023-05-01T15:06:15.786Z,98274.85
2023-05-01T15:08:43.469Z,98282.15
2023-05-01T15:11:13.986Z,98273.39
2023-05-01T15:13:42.743Z,98272.83
2023-05-01T15:16:11.146Z,98274.11
2023-05-01T15:18:39.123Z,98274.75
2023-05-01T15:21:07.102Z,98273.66
2023-05-01T15:23:34.688Z,98269.17
2023-05-01T15:26:02.304Z,98264.38
2023-05-01T15:28:30.261Z,98260.81
2023-05-01T15:30:57.990Z,98262.63
2023-05-01T15:33:25.739Z,98260.46
2023-05-01T15:35:53.570Z,98258.61
2023-05-01T15:38:21.668Z,98255.41
2023-05-01T15:40:50.131Z,98252.08
2023-05-01T15:43:17.889Z,98248.13
2023-05-01T15:45:45.800Z,98252.16
2023-05-01T15:48:13.559Z,98245.73
2023-05-01T15:50:41.365Z,98244.15
2023-05-01T15:53:08.982Z,98243.67
2023-05-01T15:55:36.784Z,98245.89
2023-05-01T15:58:04.796Z,98245.25
2023-05-01T16:00:32.876Z,98245.06
2023-05-01T16:03:01.588Z,98242.70
2023-05-01T16:05:29.520Z,98241.88
2023-05-01T16:08:00.024Z,98244.52
2023-05-01T16:10:27.943Z,98247.85
2023-05-01T16:12:55.624Z,98247.89
2023-05-01T16:15:23.253Z,98245.32
2023-05-01T16:17:54.932Z,98244.67
2023-05-01T16:20:22.855Z,98246.02
2023-05-01T16:22:51.334Z,98248.79
2023-05-01T16:25:19.051Z,98250.81
2023-05-01T16:27:47.430Z,98251.36
2023-05-01T16:30:15.064Z,98251.30
2023-05-01T16:32:43.442Z,98255.02
2023-05-01T16:35:17.968Z,98256.27
2023-05-01T16:37:45.924Z,98250.23
2023-05-01T16:40:17.362Z,98247.63
2023-05-01T16:42:54.731Z,98246.31
2023-05-01T16:45:22.457Z,98244.20
2023-05-01T16:47:50.109Z,98241.42
2023-05-01T16:50:17.747Z,98245.34
2023-05-01T16:52:45.359Z,98242.53
2023-05-01T16:55:13.167Z,98240.64
2023-05-01T16:57:43.653Z,98243.05
2023-05-01T17:00:14.024Z,98243.52
2023-05-01T17:02:41.629Z,98242.55
2023-05-01T17:05:09.744Z,98244.88
2023-05-01T17:07:37.348Z,98245.34
2023-05-01T17:10:05.898Z,98243.09
2023-05-01T17:12:33.468Z,98236.89
2023-05-01T17:15:01.091Z,98239.21
2023-05-01T17:17:28.764Z,98239.65
2023-05-01T17:19:56.495Z,98237.38
2023-05-01T17:22:24.313Z,98233.64
2023-05-01T17:24:51.942Z,98233.97
2023-05-01T17:27:19.524Z,98231.73
2023-05-01T17:29:47.179Z,98230.09
2023-05-01T17:32:20.352Z,98229.59
2023-05-01T17:35:01.277Z,98236.09
2023-05-01T17:37:29.028Z,98233.48
2023-05-01T17:39:56.841Z,98233.23
2023-05-01T17:42:24.780Z,98234.11
2023-05-01T17:44:52.431Z,98233.52
2023-05-01T17:47:20.271Z,98232.00
2023-05-01T17:49:47.907Z,98233.11
2023-05-01T17:52:15.527Z,98239.93
2023-05-01T17:54:43.110Z,98238.80
2023-05-01T17:57:10.925Z,98239.24
2023-05-01T17:59:38.705Z,98241.19
2023-05-01T18:02:06.361Z,98243.11
2023-05-01T18:04:36.129Z,98246.10
2023-05-01T18:07:04.505Z,98244.66
2023-05-01T18:09:32.150Z,98242.47
2023-05-01T18:11:59.718Z,98247.01
2023-05-01T18:14:28.177Z,98249.91
2023-05-01T18:16:56.097Z,98245.39
2023-05-01T18:19:23.730Z,98248.63
2023-05-01T18:21:51.369Z,98245.85
2023-05-01T18:24:18.985Z,98247.84
2023-05-01T18:26:46.586Z,98250.31
2023-05-01T18:29:14.243Z,98252.23
2023-05-01T18:31:41.979Z,98254.88
2023-05-01T18:34:11.905Z,98255.39
2023-05-01T18:36:39.508Z,98257.83
2023-05-01T18:39:07.133Z,98259.58
2023-05-01T18:41:34.806Z,98257.98
2023-05-01T18:44:04.024Z,98260.04
2023-05-01T18:46:31.813Z,98262.64
2023-05-01T18:48:59.956Z,98264.86
2023-05-01T18:51:27.689Z,98265.16
2023-05-01T18:53:55.294Z,98268.08
2023-05-01T18:56:24.355Z,98274.33
2023-05-01T18:58:51.957Z,98268.45
2023-05-01T19:01:20.793Z,98270.14
2023-05-01T19:03:48.671Z,98268.11
2023-05-01T19:06:16.330Z,98269.45
2023-05-01T19:08:44.008Z,98271.84
2023-05-01T19:11:11.768Z,98274.92
2023-05-01T19:13:39.440Z,98272.73
2023-05-01T19:16:07.184Z,98272.46
2023-05-01T19:18:37.489Z,98267.99
2023-05-01T19:21:05.712Z,98270.02
2023-05-01T19:23:35.525Z,98268.35
2023-05-01T19:26:04.776Z,98262.97
2023-05-01T19:28:34.218Z,98270.08
2023-05-01T19:31:04.441Z,98263.98
2023-05-01T19:33:35.435Z,98266.53
2023-05-01T19:36:05.228Z,98264.48
2023-05-01T19:38:37.311Z,98264.02
2023-05-01T19:41:07.195Z,98257.91
2023-05-01T19:43:36.604Z,98257.27
2023-05-01T19:46:10.683Z,98256.98
2023-05-01T19:48:40.807Z,98256.66
2023-05-01T19:51:08.447Z,98262.84
2023-05-01T19:53:36.336Z,98262.89
2023-05-01T19:56:09.814Z,98263.44
2023-05-01T19:58:38.963Z,98260.11
2023-05-01T20:01:09.385Z,98258.91
2023-05-01T20:03:37.107Z,98257.53
2023-05-01T20:06:06.560Z,98260.88
2023-05-01T20:08:34.851Z,98266.85
2023-05-01T20:11:02.480Z,98263.54
2023-05-01T20:13:30.534Z,98264.95
2023-05-01T20:15:58.248Z,98262.85
2023-05-01T20:18:25.964Z,98261.27
2023-05-01T20:20:53.640Z,98259.70
2023-05-01T20:23:23.468Z,98257.24
2023-05-01T20:25:53.880Z,98259.69
2023-05-01T20:28:21.521Z,98258.48
2023-05-01T20:30:49.351Z,98256.38
2023-05-01T20:33:17.763Z,98257.23
2023-05-01T20:35:46.065Z,98260.41
2023-05-01T20:38:13.845Z,98264.25
2023-05-01T20:40:42.271Z,98261.43
2023-05-01T20:43:09.897Z,98266.02
2023-05-01T20:45:37.699Z,98266.71
2023-05-01T20:48:05.612Z,98267.95
2023-05-01T20:50:33.394Z,98270.55
2023-05-01T20:53:01.002Z,98277.20
2023-05-01T20:55:29.932Z,98269.31
2023-05-01T20:57:57.559Z,98279.31
2023-05-01T21:00:25.356Z,98277.57
2023-05-01T21:02:53.196Z,98279.30
2023-05-01T21:05:21.021Z,98280.52
2023-05-01T21:07:48.777Z,98285.79
2023-05-01T21:10:16.706Z,98288.93
2023-05-01T21:12:44.355Z,98285.95
2023-05-01T21:15:12.100Z,98285.77
2023-05-01T21:17:40.150Z,98288.92
2023-05-01T21:20:12.882Z,98286.82
2023-05-01T21:22:41.458Z,98286.81
2023-05-01T21:25:09.508Z,98287.16
2023-05-01T21:27:39.741Z,98281.90
2023-05-01T21:30:08.693Z,98290.63
2023-05-01T21:32:40.287Z,98290.11
2023-05-01T21:35:09.922Z,98289.58
2023-05-01T21:37:37.707Z,98292.73
2023-05-01T21:40:06.484Z,98294.66
2023-05-01T21:42:40.010Z,98293.61
2023-05-01T21:45:08.909Z,98296.23
2023-05-01T21:47:45.652Z,98296.73
2023-05-01T21:50:18.609Z,98297.59
2023-05-01T21:52:48.047Z,98300.55
2023-05-01T21:55:25.606Z,98301.07
2023-05-01T21:57:53.462Z,98301.23
2023-05-01T22:00:21.259Z,98302.09
2023-05-01T22:02:49.877Z,98303.15
2023-05-01T22:05:19.313Z,98300.35
2023-05-01T22:07:47.388Z,98302.78
2023-05-01T22:10:18.620Z,98304.51
2023-05-01T22:12:46.947Z,98301.53
2023-05-01T22:15:15.635Z,98302.06
2023-05-01T22:17:43.890Z,98301.69
2023-05-01T22:20:11.856Z,98306.59
2023-05-01T22:22:40.314Z,98302.04
2023-05-01T22:25:08.511Z,98300.11
2023-05-01T22:27:36.430Z,98300.29
2023-05-01T22:30:04.757Z,98299.73
2023-05-01T22:32:32.537Z,98302.19
2023-05-01T22:35:00.371Z,98301.14
2023-05-01T22:37:28.044Z,98298.17
2023-05-01T22:39:55.634Z,98301.33
2023-05-01T22:42:23.422Z,98298.87
2023-05-01T22:44:51.034Z,98295.52
2023-05-01T22:47:18.674Z,98303.05
2023-05-01T22:49:46.325Z,98297.80
2023-05-01T22:52:13.896Z,98296.20
2023-05-01T22:54:41.497Z,98301.61
2023-05-01T22:57:10.359Z,98300.21
2023-05-01T22:59:39.685Z,98301.77
2023-05-01T23:02:07.329Z,98299.85
2023-05-01T23:04:35.047Z,98295.64
2023-05-01T23:07:02.774Z,98297.71
2023-05-01T23:09:32.214Z,98297.02
2023-05-01T23:12:00.031Z,98292.10
2023-05-01T23:14:27.673Z,98299.05
2023-05-01T23:16:55.294Z,98294.70
2023-05-01T23:19:23.850Z,98296.58
2023-05-01T23:22:04.088Z,98298.15
2023-05-01T23:24:44.696Z,98293.39
2023-05-01T23:27:13.550Z,98291.45
2023-05-01T23:29:41.517Z,98290.92
2023-05-01T23:32:10.833Z,98292.80
2023-05-01T23:34:38.792Z,98287.38
2023-05-01T23:37:06.937Z,98290.67
2023-05-01T23:39:34.552Z,98288.90
2023-05-01T23:42:02.571Z,98282.07
2023-05-01T23:44:30.467Z,98283.29
2023-05-01T23:46:58.207Z,98282.20
2023-05-01T23:49:25.815Z,98281.30
2023-05-01T23:51:53.460Z,98282.69
2023-05-01T23:54:21.056Z,98279.88
2023-05-01T23:56:48.645Z,98285.98
2023-05-01T23:59:16.634Z,98281.05
